Broderick, California
Current Conditions -  °F | °C
As of 5:53 PM on Friday 19 Dec 2014 (Local Time) from KSAC Reporting Station
Overcast Overcast  
Wind Chill: 53°   Ceiling: 2900
Heat Index: 53°   Visibility: 10mi
Dew Point: 51°   Wind: 7mph
Humidity: 93%   Direction: 140°SE
Pressure: 30.15"   Gusts: NA
Location:  38.5921°N, 121.545°W
Report Text: KSAC 200153Z 14006KT 10SM FEW006 BKN029 OVC060 12/11 A3015 RMK AO2 RAE29 SLP210 P0001 T01170106
Loading
Personal Weather Stations






























Interactive Weather Map New forecast layout! Learn more

10-Day Weather Forecast

Advertisements
Track Severe Weather on mobile